Plomer, Argentina
Current Conditions -  °F | °C
As of 5:00 PM on Monday 26 Jan 2015 (Local Time) from SAEZ Reporting Station
Clear Clear  
Wind Chill: 91°   Ceiling: Unl
Heat Index: 95°   Visibility: 6mi
Dew Point: 68°   Wind: 8mph
Humidity: 46%   Direction: 310°NW
Pressure: 29.71"   Gusts: NA
Location:  34.79°S, 59.04°W
Report Text: SAEZ 262000Z 31007KT 260V350 CAVOK 33/20 Q1006
Loading
Personal Weather Stations






























Interactive Weather Map New forecast layout! Learn more

10-Day Weather Forecast

Advertisements
Track Severe Weather on mobile